Tiempo atmosférico en la estación meteorológica de Irurtzun, Navarra (455 m.)



Fecha
DESCASC
Temp. máxima en grados centígrados (hora)
DESCASC
Temp. mínima en grados centígrados (hora)
DESCASC
Temp. media en grados centígrados
DESCASC
Racha de viento máxima en m/sg (hora)
DESCASC
Velocidad máxima media en intervalos de 10 minutos(hora)
DESCASC
Precipitaciones diarias en mm
DESCASC
Precipitaciones de 00:00 a 06:00 en mm
DESCASC
Precipitaciones de 06:00 a 12:00 en mm
DESCASC
Precipitaciones de 12:00 a 18:00 en mm
DESCASC
Precipitaciones de 18:00 a 24:00 en mm
DESCASC
07-08-2020 40 (17:00) 19.6 (07:00) 29.8 16.11 (17:40) 5.83 (17:40) 2 0 0 0 2
06-08-2020 38 (18:30) 11.8 (07:20) 24.9 7.5 (13:40) 4.17 (14:40) 0 0 0 0 0
05-08-2020 33.1 (16:40) 11 (07:30) 22 8.89 (19:30) 4.17 (19:30) 0 0 0 0 0
04-08-2020 24.1 (15:50) 14.5 (06:40) 19.3 8.61 (17:40) 3.89 (17:30) 0.6 0.2 0.4 0 0
03-08-2020 22.6 (17:00) 15.7 (05:50) 19.2 10 (14:10) 4.17 (12:50) 0 0 0 0 0
02-08-2020 20.8 (16:30) 16.6 (00:00) 18.7 8.89 (10:30) 4.17 (13:30) 0 0 0 0 0
01-08-2020 23.3 (16:00) 18.8 (00:00) 21 10.83 (15:50) 5.56 (14:20) 0 0 0 0 0
31-07-2020 36.7 (15:20) 18.3 (06:00) 27.5 8.61 (19:40) 4.17 (19:30) 0 0 0 0 0
30-07-2020 39 (16:30) 17.6 (00:00) 28.3 12.78 (19:00) 6.11 (18:50) 1.2 0 0 0 1.2
29-07-2020 33.3 (16:30) 17.9 (00:00) 25.6 9.44 (17:50) 5 (17:50) 0 0 0 0 0
28-07-2020 25.6 (14:50) 18.7 (00:00) 22.2 8.33 (20:40) 5 (20:40) 0 0 0 0 0
27-07-2020 37.9 (16:40) 15.7 (00:00) 26.8 10.83 (20:50) 6.11 (20:50) 0 0 0 0 0
26-07-2020 29.3 (15:40) 13.8 (00:00) 21.5 8.33 (19:40) 4.44 (19:00) 0 0 0 0 0
25-07-2020 31.6 (17:00) 12.5 (00:00) 22.1 9.17 (19:50) 5.28 (20:20) 0 0 0 0 0
24-07-2020 24.9 (16:00) 13.8 (00:00) 19.3 8.33 (17:10) 4.17 (17:10) 0 0 0 0 0
23-07-2020 26.3 (17:00) 17.7 (00:00) 22 8.33 (16:10) 3.89 (16:20) 0 0 0 0 0
22-07-2020 34.9 (16:20) 17.5 (07:10) 26.2 9.44 (18:40) 4.44 (18:40) 0 0 0 0 0
21-07-2020 34.1 (15:10) 13.4 (00:00) 23.7 8.61 (16:50) 4.72 (16:10) 1.4 0 0 0 1.4
20-07-2020 30.1 (15:20) 16.4 (07:20) 23.3 11.39 (19:10) 6.67 (19:10) 0 0 0 0 0
19-07-2020 34.5 (17:50) 11.5 (00:00) 23 8.89 (19:40) 4.17 (20:50) 0 0 0 0 0
18-07-2020 28.8 (16:40) 14.3 (00:00) 21.5 9.17 (01:30) 3.89 (01:50) 0 0 0 0 0
17-07-2020 21.1 (17:40) 15.1 (00:00) 18.1 8.61 (16:20) 3.33 (23:10) 0 0 0 0 0
16-07-2020 19.9 (17:00) 15.4 (00:00) 17.6 8.89 (18:50) 4.17 (18:50) 0 0 0 0 0
15-07-2020 21.3 (17:40) 14.4 (00:00) 17.8 9.17 (15:40) 4.17 (15:50) 0 0 0 0 0
14-07-2020 22.7 (15:50) 12.8 (00:00) 17.8 10 (16:30) 4.72 (10:20) 0 0 0 0 0
13-07-2020 24.8 (14:10) 13.9 (06:50) 19.3 9.44 (10:40) 4.72 (09:30) 0 0 0 0 0

Gráficas

Temp. máximas Temp. mínimas Temp. medias Precipitaciones Rachas de viento máximas Velocidades máximas media en intervalos de 10 minutos

Datos horarios

Fecha y hora oficial Temperatura (ºC) Velocidad del viento (km/h) Dirección del viento Racha (km/h) Dirección de racha Precipitación (mm) Presión (hPa) Tendencia (hPa) Humedad (%)
2020-08-11 23:00:00 19.1 0 Calma 4 Oeste 0 -- -- 91
2020-08-11 22:00:00 19.4 2 Oeste 5 Noroeste 0 -- -- 88
2020-08-11 21:00:00 20.2 2 Oeste 6 Sudeste 0 -- -- 85
2020-08-11 20:00:00 20.8 3 Sur 6 Noroeste 0 -- -- 84
2020-08-11 19:00:00 21.4 0 Calma 12 Oeste 0.2 -- -- 77
2020-08-11 18:00:00 22.5 9 Oeste 35 Oeste 0.4 -- -- 72
2020-08-11 17:00:00 30.6 7 Sur 30 Sudeste 0 -- -- 37
2020-08-11 16:00:00 32 11 Sudeste 30 Sudeste 0 -- -- 34
2020-08-11 15:00:00 31.9 7 Sudeste 29 Este 0 -- -- 41
2020-08-11 14:00:00 29.5 13 Sudeste 31 Sudeste 0 -- -- 45
2020-08-11 13:00:00 30.4 18 Sudeste 33 Sur 0 -- -- 41
2020-08-11 12:00:00 27.7 6 Este 28 Sudeste 0 -- -- 49
2020-08-11 11:00:00 25.6 3 Este 8 Norte 0 -- -- 55
2020-08-11 10:00:00 23.3 2 Norte 11 Nordeste 0 -- -- 69
2020-08-11 09:00:00 22.9 2 Nordeste 36 Sudeste 0 -- -- 70
2020-08-11 08:00:00 23.6 11 Sudeste 30 Este 0 -- -- 61
2020-08-11 07:00:00 19.4 6 Norte 15 Norte 0 -- -- 79
2020-08-11 06:00:00 19.3 6 Norte 16 Norte 0 -- -- 83
2020-08-11 05:00:00 19.8 4 Nordeste 14 Nordeste 0 -- -- 82
2020-08-11 04:00:00 20.3 4 Nordeste 13 Norte 0 -- -- 82
2020-08-11 03:00:00 20.6 5 Norte 14 Norte 0 -- -- 81
2020-08-11 02:00:00 21.3 5 Nordeste 17 Nordeste 0 -- -- 78
2020-08-11 01:00:00 22 5 Nordeste 19 Norte 0 -- -- 76
2020-08-11 00:00:00 22.3 7 Norte 17 Norte 0 -- -- 75
2020-08-10 23:00:00 22.5 6 Nordeste 15 Norte 0 -- -- 78
2020-08-10 22:00:00 23.3 6 Norte 14 Norte 0 -- -- 74
2020-08-10 21:00:00 24.4 6 Nordeste 18 Norte 0 -- -- 71
2020-08-10 20:00:00 28 6 Norte 21 Sudeste 0 -- -- 55
2020-08-10 19:00:00 32.3 8 Este 26 Nordeste 0 -- -- 31
2020-08-10 18:00:00 33.4 9 Sudeste 49 Sudeste 0 -- -- 33
2020-08-10 17:00:00 34.1 13 Sur 38 Sudeste 0 -- -- 32
2020-08-10 16:00:00 34.8 12 Sur 27 Sudeste 0 -- -- 32
2020-08-10 15:00:00 34 10 Sur 23 Sudeste 0 -- -- 33
2020-08-10 14:00:00 33.2 7 Sudeste 29 Este 0 -- -- 38
2020-08-10 13:00:00 31.5 10 Este 26 Sudeste 0 -- -- 40
2020-08-10 12:00:00 28.4 8 Nordeste 16 Nordeste 0 -- -- 52
2020-08-10 11:00:00 25.8 6 Nordeste 14 Nordeste 0 -- -- 64
2020-08-10 10:00:00 23.8 4 Nordeste 12 Norte 0 -- -- 71
2020-08-10 09:00:00 20 3 Nordeste 8 Nordeste 0 -- -- 94
2020-08-10 08:00:00 18.4 2 Sur 4 Sur 0 -- -- 95
2020-08-10 07:00:00 18.2 0 Calma 4 Sudeste 0 -- -- 93
2020-08-10 06:00:00 19.2 2 Sur 9 Nordeste 0 -- -- 92
2020-08-10 05:00:00 19.1 3 Sur 6 Sudeste 0 -- -- 93
2020-08-10 04:00:00 20 2 Sur 8 Norte 0 -- -- 90
2020-08-10 03:00:00 20.7 0 Calma 10 Nordeste 0 -- -- 89
2020-08-10 02:00:00 21.4 2 Noroeste 8 Norte 0 -- -- 87
2020-08-10 01:00:00 22.3 5 Noroeste 13 Oeste 0 -- -- 85
2020-08-10 00:00:00 22.8 3 Nordeste 13 Norte 0 -- -- 85
2020-08-09 23:00:00 23.6 3 Este 15 Norte 0 -- -- 85
2020-08-09 22:00:00 25.2 6 Norte 17 Norte 0 -- -- 79
2020-08-09 21:00:00 28.1 9 Norte 25 Norte 0 -- -- 71
2020-08-09 20:00:00 31.3 8 Norte 15 Norte 0 -- -- 57
2020-08-09 19:00:00 34.9 6 Sur 19 Sur 0 -- -- 37
2020-08-09 18:00:00 37.7 7 Sur 15 Sur 0 -- -- 32
2020-08-09 17:00:00 36.7 5 Sur 20 Sudeste 0 -- -- 35
2020-08-09 16:00:00 35.5 12 Sudeste 27 Sudeste 0 -- -- 39
2020-08-09 15:00:00 33.5 13 Sudeste 26 Sudeste 0 -- -- 44
2020-08-09 14:00:00 29.1 7 Este 14 Este 0 -- -- 54
2020-08-09 13:00:00 27.2 4 Oeste 19 Sudeste 0.4 -- -- 67
2020-08-09 12:00:00 28.3 12 Sudeste 22 Este 0 -- -- 58
2020-08-09 11:00:00 25.8 8 Este 19 Este 0 -- -- 65
2020-08-09 10:00:00 21.3 5 Nordeste 13 Norte 0 -- -- 84
2020-08-09 09:00:00 18.7 0 Calma 4 Sur 0 -- -- 97
2020-08-09 08:00:00 17.8 0 Calma 4 Oeste 0.2 -- -- 97
2020-08-09 07:00:00 17.9 0 Calma 0 Calma 0 -- -- 96
2020-08-09 06:00:00 18.6 0 Calma 8 Nordeste 0 -- -- 95
2020-08-09 05:00:00 18.7 3 Sudeste 6 Este 0 -- -- 96
2020-08-09 04:00:00 18.7 0 Calma 4 Oeste 0 -- -- 94
2020-08-09 03:00:00 19.5 2 Noroeste 5 Oeste 0 -- -- 94
2020-08-09 02:00:00 20.7 0 Calma 10 Norte 0 -- -- 92
2020-08-09 01:00:00 21.5 3 Nordeste 17 Nordeste 0.4 -- -- 88
2020-08-09 00:00:00 22.5 5 Norte 22 Sur 2 -- -- 82
2020-08-08 23:00:00 25.1 10 Sur 30 Oeste 0 -- -- 71
2020-08-08 22:00:00 25.6 6 Noroeste 20 Oeste 0 -- -- 70
2020-08-08 21:00:00 27.8 9 Oeste 21 Oeste 0 -- -- 63
2020-08-08 20:00:00 30.1 9 Norte 30 Norte 0 -- -- 54
2020-08-08 19:00:00 32.1 12 Norte 30 Norte 0 -- -- 51
2020-08-08 18:00:00 33.8 11 Norte 25 Norte 0 -- -- 44
2020-08-08 17:00:00 34.8 11 Norte 25 Norte 0 -- -- 38
2020-08-08 16:00:00 35.5 8 Norte 18 Nordeste 0 -- -- 36
2020-08-08 15:00:00 35 3 Oeste 15 Sur 0 -- -- 33
2020-08-08 14:00:00 33.2 5 Norte 10 Norte 0 -- -- 36
2020-08-08 13:00:00 30.3 3 Sudeste 9 Sur 0 -- -- 43
2020-08-08 12:00:00 27.5 3 Sur 12 Sudoeste 0 -- -- 49
2020-08-08 11:00:00 24.7 6 Oeste 12 Sur 0 -- -- 54
2020-08-08 10:00:00 22.1 4 Oeste 10 Oeste 0 -- -- 68
2020-08-08 09:00:00 18.5 0 Calma 3 Norte 0 -- -- 88
2020-08-08 08:00:00 17.1 0 Calma 5 Oeste 0 -- -- 93
2020-08-08 07:00:00 17.1 0 Calma 8 Nordeste 0 -- -- 92
2020-08-08 06:00:00 17.6 3 Norte 9 Nordeste 0 -- -- 92
2020-08-08 05:00:00 18.4 4 Norte 14 Noroeste 0 -- -- 90
2020-08-08 04:00:00 19.2 4 Noroeste 8 Oeste 0 -- -- 86
2020-08-08 03:00:00 21.1 6 Noroeste 11 Oeste 0 -- -- 76
2020-08-08 02:00:00 22.5 4 Nordeste 16 Norte 0 -- -- 70
2020-08-08 01:00:00 22 4 Norte 11 Norte 0 -- -- 74
2020-08-08 00:00:00 22 4 Norte 12 Este 0 -- -- 77
2020-08-07 23:00:00 21.7 6 Norte 14 Norte 0 -- -- 79
2020-08-07 22:00:00 21.9 4 Norte 35 Sudeste 0.2 -- -- 82
2020-08-07 21:00:00 21.7 5 Norte 25 Noroeste 1.6 -- -- 82
2020-08-07 20:00:00 24.7 9 Noroeste 26 Oeste 0.2 -- -- 64
2020-08-07 19:00:00 29.6 10 Noroeste 35 Oeste 0 -- -- 36
2020-08-07 18:00:00 29.1 16 Oeste 58 Oeste 0 -- -- 44
2020-08-07 17:00:00 40 9 Sur 19 Sudeste 0 -- -- 26
2020-08-07 16:00:00 39 11 Sudeste 32 Sur 0 -- -- 27
2020-08-07 15:00:00 37.6 9 Sudeste 28 Sudeste 0 -- -- 29
2020-08-07 14:00:00 36 13 Sudeste 26 Sudeste 0 -- -- 33
2020-08-07 13:00:00 33.4 12 Este 25 Este 0 -- -- 38
2020-08-07 12:00:00 32 12 Este 25 Este 0 -- -- 39
2020-08-07 11:00:00 29.8 9 Nordeste 19 Nordeste 0 -- -- 47
2020-08-07 10:00:00 27.2 10 Nordeste 21 Este 0 -- -- 53
2020-08-07 09:00:00 25.1 9 Este 21 Este 0 -- -- 58
2020-08-07 08:00:00 20 4 Norte 12 Nordeste 0 -- -- 74
2020-08-07 07:00:00 19.6 6 Norte 13 Nordeste 0 -- -- 75
2020-08-07 06:00:00 20.8 4 Nordeste 8 Este 0 -- -- 70
2020-08-07 05:00:00 20.4 3 Noroeste 13 Norte 0 -- -- 73
2020-08-07 04:00:00 21.5 5 Noroeste 10 Norte 0 -- -- 69
2020-08-07 03:00:00 23.1 5 Norte 12 Nordeste 0 -- -- 63
2020-08-07 02:00:00 24.2 8 Norte 17 Norte 0 -- -- 60
2020-08-07 01:00:00 24 8 Norte 16 Norte 0 -- -- 62
2020-08-07 00:00:00 25.3 8 Norte 15 Norte 0 -- -- 57
2020-08-06 23:00:00 25.7 2 Nordeste 14 Norte 0 -- -- 57
2020-08-06 22:00:00 26.8 4 Norte 11 Norte 0 -- -- 53
2020-08-06 21:00:00 29.4 5 Norte 9 Noroeste 0 -- -- 45
2020-08-06 20:00:00 34.7 4 Norte 11 Sur 0 -- -- 35
2020-08-06 19:00:00 37.8 5 Sur 16 Sur 0 -- -- 27
2020-08-06 18:00:00 37.6 5 Sur 17 Sudeste 0 -- -- 28
2020-08-06 17:00:00 37.2 9 Sur 19 Sudeste 0 -- -- 29
2020-08-06 16:00:00 36.3 13 Sudeste 23 Sur 0 -- -- 29
2020-08-06 15:00:00 35.1 13 Sudeste 27 Sudeste 0 -- -- 33
2020-08-06 14:00:00 33.1 9 Sudeste 27 Sudeste 0 -- -- 40
2020-08-06 13:00:00 30.6 9 Este 24 Nordeste 0 -- -- 48
2020-08-06 12:00:00 28 10 Este 26 Este 0 -- -- 55
2020-08-06 11:00:00 25.7 11 Nordeste 21 Este 0 -- -- 59
2020-08-06 10:00:00 21.9 8 Este 18 Este 0 -- -- 63
2020-08-06 09:00:00 15.2 6 Norte 13 Norte 0 -- -- 84
2020-08-06 08:00:00 12.2 0 Calma 6 Norte 0 -- -- 95
2020-08-06 07:00:00 12 0 Calma 3 Sur 0 -- -- 94
2020-08-06 06:00:00 12.3 0 Calma 3 Sur 0 -- -- 93
2020-08-06 05:00:00 12.7 0 Calma 2 Oeste 0 -- -- 92
2020-08-06 04:00:00 13.5 0 Calma 4 Nordeste 0 -- -- 91
2020-08-06 03:00:00 14.7 0 Calma 3 Sur 0 -- -- 88
2020-08-06 02:00:00 15.8 0 Calma 9 Norte 0 -- -- 86
2020-08-06 01:00:00 17.5 4 Norte 9 Norte 0 -- -- 84
2020-08-06 00:00:00 18.8 2 Noroeste 6 Noroeste 0 -- -- 78
2020-08-05 23:00:00 21.3 3 Oeste 11 Oeste 0 -- -- 68
2020-08-05 22:00:00 24.4 7 Oeste 26 Noroeste 0 -- -- 61
2020-08-05 21:00:00 26.1 11 Norte 28 Noroeste 0 -- -- 58
2020-08-05 20:00:00 28.1 15 Norte 32 Noroeste 0 -- -- 54
2020-08-05 19:00:00 29.9 14 Noroeste 27 Noroeste 0 -- -- 49
2020-08-05 18:00:00 31.7 7 Norte 19 Nordeste 0 -- -- 42
2020-08-05 17:00:00 33 8 Nordeste 17 Este 0 -- -- 36
2020-08-05 16:00:00 32.9 5 Este 12 Noroeste 0 -- -- 31
2020-08-05 15:00:00 31.2 4 Sudoeste 10 Oeste 0 -- -- 27
2020-08-05 14:00:00 29.4 4 Este 12 Este 0 -- -- 35
2020-08-05 13:00:00 27 5 Nordeste 15 Sudeste 0 -- -- 43
2020-08-05 12:00:00 24.5 3 Sudoeste 10 Este 0 -- -- 52
2020-08-05 11:00:00 20.5 2 Nordeste 6 Sudeste 0 -- -- 63
2020-08-05 10:00:00 16.9 2 Este 6 Nordeste 0 -- -- 78
2020-08-05 09:00:00 13.1 3 Norte 5 Norte 0 -- -- 93
2020-08-05 08:00:00 11.2 0 Calma 6 Noroeste 0 -- -- 95
2020-08-05 07:00:00 11.4 3 Norte 6 Oeste 0 -- -- 95
2020-08-05 06:00:00 12.1 3 Noroeste 10 Sudoeste 0 -- -- 94
2020-08-05 05:00:00 12.5 0 Calma 8 Norte 0 -- -- 94
2020-08-05 04:00:00 13.4 4 Noroeste 11 Sudoeste 0 -- -- 91
2020-08-05 03:00:00 14.3 4 Noroeste 13 Norte 0 -- -- 90
2020-08-05 02:00:00 14.7 3 Oeste 14 Oeste 0 -- -- 90
2020-08-05 01:00:00 15.7 5 Noroeste 18 Oeste 0 -- -- 85
2020-08-05 00:00:00 16.8 4 Oeste 17 Oeste 0 -- -- 82
2020-08-04 23:00:00 17.2 8 Noroeste 18 Oeste 0 -- -- 82
2020-08-04 22:00:00 18.1 6 Oeste 18 Oeste 0 -- -- 77
2020-08-04 21:00:00 20 3 Oeste 17 Noroeste 0 -- -- 69
2020-08-04 20:00:00 22 10 Norte 24 Noroeste 0 -- -- 60
2020-08-04 19:00:00 22.7 7 Noroeste 26 Norte 0 -- -- 55
2020-08-04 18:00:00 23.1 5 Noroeste 31 Noroeste 0 -- -- 56
2020-08-04 17:00:00 23.7 11 Noroeste 25 Nordeste 0 -- -- 51
2020-08-04 16:00:00 23.6 11 Norte 28 Este 0 -- -- 54
2020-08-04 15:00:00 22.9 7 Norte 25 Noroeste 0 -- -- 55
2020-08-04 14:00:00 22.4 8 Noroeste 27 Norte 0 -- -- 60
2020-08-04 13:00:00 20.5 6 Noroeste 15 Oeste 0 -- -- 74
2020-08-04 12:00:00 18.1 4 Oeste 8 Sudoeste 0.2 -- -- 86
2020-08-04 11:00:00 16.4 3 Oeste 9 Oeste 0.2 -- -- 91
2020-08-04 10:00:00 16 6 Oeste 12 Oeste 0 -- -- 91
2020-08-04 09:00:00 16.4 3 Oeste 5 Oeste 0 -- -- 87
2020-08-04 08:00:00 15.4 3 Oeste 12 Sudoeste 0 -- -- 92
2020-08-04 07:00:00 14.5 0 Calma 4 Noroeste 0 -- -- 94
2020-08-04 06:00:00 15.1 3 Noroeste 12 Noroeste 0 -- -- 94
2020-08-04 05:00:00 15.3 4 Noroeste 15 Oeste 0.2 -- -- 93
2020-08-04 04:00:00 15.1 3 Noroeste 12 Oeste 0 -- -- 93
2020-08-04 03:00:00 15.5 3 Noroeste 13 Oeste 0 -- -- 89
2020-08-04 02:00:00 16.6 5 Oeste 19 Oeste 0 -- -- 80
2020-08-04 01:00:00 16.2 8 Noroeste 17 Oeste 0 -- -- 83
2020-08-04 00:00:00 16.1 8 Noroeste 17 Oeste 0 -- -- 81
2020-08-03 23:00:00 16.5 8 Oeste 19 Sudoeste 0 -- -- 78
2020-08-03 22:00:00 17 5 Noroeste 15 Oeste 0 -- -- 75
2020-08-03 21:00:00 18.3 8 Noroeste 18 Noroeste 0 -- -- 66
2020-08-03 20:00:00 19.9 10 Noroeste 25 Noroeste 0 -- -- 60
2020-08-03 19:00:00 21.6 8 Norte 23 Oeste 0 -- -- 55
2020-08-03 18:00:00 20 12 Noroeste 28 Oeste 0 -- -- 60
2020-08-03 17:00:00 22.6 10 Oeste 26 Oeste 0 -- -- 57
2020-08-03 16:00:00 20.8 12 Noroeste 27 Noroeste 0 -- -- 62
2020-08-03 15:00:00 20.9 13 Oeste 36 Oeste 0 -- -- 64
2020-08-03 14:00:00 20.4 7 Oeste 27 Oeste 0 -- -- 64
2020-08-03 13:00:00 20.2 14 Noroeste 31 Noroeste 0 -- -- 66
2020-08-03 12:00:00 19.7 11 Oeste 28 Oeste 0 -- -- 68
2020-08-03 11:00:00 18.9 10 Noroeste 26 Oeste 0 -- -- 71
2020-08-03 10:00:00 18.1 10 Oeste 24 Sudoeste 0 -- -- 72
2020-08-03 09:00:00 16.8 10 Noroeste 22 Noroeste 0 -- -- 75
2020-08-03 08:00:00 16.3 8 Noroeste 17 Noroeste 0 -- -- 79
2020-08-03 07:00:00 16.2 8 Noroeste 21 Noroeste 0 -- -- 80
2020-08-03 06:00:00 15.7 7 Noroeste 16 Sudoeste 0 -- -- 83
2020-08-03 05:00:00 16.2 9 Oeste 22 Oeste 0 -- -- 80
2020-08-03 04:00:00 16.7 5 Noroeste 18 Noroeste 0 -- -- 80
2020-08-03 03:00:00 16.6 7 Noroeste 17 Oeste 0 -- -- 79
2020-08-03 02:00:00 16.7 6 Oeste 19 Sudoeste 0 -- -- 78
2020-08-03 01:00:00 16.4 10 Oeste 25 Oeste 0 -- -- 82
2020-08-03 00:00:00 16.6 9 Oeste 22 Oeste 0 -- -- 80
2020-08-02 23:00:00 16.9 8 Oeste 25 Noroeste 0 -- -- 79
2020-08-02 22:00:00 17.1 5 Oeste 18 Oeste 0 -- -- 79
2020-08-02 21:00:00 17.7 9 Oeste 20 Oeste 0 -- -- 78
2020-08-02 20:00:00 18.5 6 Noroeste 24 Norte 0 -- -- 75
2020-08-02 19:00:00 19.4 9 Oeste 24 Oeste 0 -- -- 72
2020-08-02 18:00:00 20.1 10 Noroeste 27 Oeste 0 -- -- 70
2020-08-02 17:00:00 19.6 11 Oeste 28 Nordeste 0 -- -- 73
2020-08-02 16:00:00 20 10 Norte 30 Oeste 0 -- -- 68
2020-08-02 15:00:00 20.4 10 Noroeste 28 Norte 0 -- -- 67
2020-08-02 14:00:00 19.4 12 Noroeste 29 Norte 0 -- -- 69
2020-08-02 13:00:00 19.7 8 Noroeste 22 Oeste 0 -- -- 73
2020-08-02 12:00:00 19.6 10 Oeste 25 Noroeste 0 -- -- 72
2020-08-02 11:00:00 19.5 11 Norte 32 Nordeste 0 -- -- 69
2020-08-02 10:00:00 18.7 7 Norte 20 Norte 0 -- -- 75
2020-08-02 09:00:00 17.8 5 Oeste 17 Oeste 0 -- -- 85
2020-08-02 08:00:00 17.3 7 Oeste 15 Oeste 0 -- -- 89
2020-08-02 07:00:00 17.9 9 Oeste 17 Oeste 0 -- -- 83
2020-08-02 06:00:00 17.7 6 Oeste 22 Oeste 0 -- -- 84
2020-08-02 05:00:00 17.5 4 Noroeste 20 Oeste 0 -- -- 83
2020-08-02 04:00:00 17.9 5 Oeste 14 Sudoeste 0 -- -- 83
2020-08-02 03:00:00 18.5 9 Noroeste 26 Oeste 0 -- -- 83
2020-08-02 02:00:00 19 4 Oeste 20 Oeste 0 -- -- 81
2020-08-02 01:00:00 19 4 Noroeste 19 Noroeste 0 -- -- 84
2020-08-02 00:00:00 19.1 8 Oeste 17 Noroeste 0 -- -- 84
2020-08-01 23:00:00 18.8 8 Oeste 21 Oeste 0 -- -- 89
2020-08-01 22:00:00 19.4 8 Noroeste 22 Oeste 0 -- -- 85
2020-08-01 21:00:00 19.7 10 Noroeste 23 Oeste 0 -- -- 84
2020-08-01 20:00:00 20 6 Oeste 19 Oeste 0 -- -- 84
2020-08-01 19:00:00 20.6 11 Oeste 29 Oeste 0 -- -- 79
2020-08-01 18:00:00 21.4 9 Noroeste 26 Oeste 0 -- -- 74
2020-08-01 17:00:00 23.3 11 Oeste 33 Oeste 0 -- -- 66
2020-08-01 16:00:00 23.3 16 Noroeste 39 Noroeste 0 -- -- 69
2020-08-01 15:00:00 22.3 19 Noroeste 36 Noroeste 0 -- -- 74
2020-08-01 14:00:00 21.4 16 Norte 32 Norte 0 -- -- 73
2020-08-01 13:00:00 20.7 16 Norte 33 Norte 0 -- -- 78
2020-08-01 12:00:00 21.3 14 Norte 32 Noroeste 0 -- -- 77
2020-08-01 11:00:00 21.3 10 Noroeste 33 Norte 0 -- -- 76
2020-08-01 10:00:00 20.5 16 Norte 33 Norte 0 -- -- 81
2020-08-01 09:00:00 19.6 15 Norte 32 Norte 0 -- -- 83
2020-08-01 08:00:00 19.6 14 Norte 30 Norte 0 -- -- 84
2020-08-01 07:00:00 19.5 11 Norte 27 Norte 0 -- -- 85
2020-08-01 06:00:00 19.7 18 Norte 32 Norte 0 -- -- 85
2020-08-01 05:00:00 20.3 14 Noroeste 28 Noroeste 0 -- -- 85
2020-08-01 04:00:00 20.6 14 Noroeste 27 Oeste 0 -- -- 84
2020-08-01 03:00:00 20.9 12 Noroeste 27 Norte 0 -- -- 85
2020-08-01 02:00:00 21 5 Noroeste 23 Nordeste 0 -- -- 85
2020-08-01 01:00:00 21.1 5 Noroeste 16 Noroeste 0 -- -- 85
2020-08-01 00:00:00 21.2 5 Noroeste 13 Oeste 0 -- -- 87
2020-07-31 23:00:00 21.6 5 Noroeste 21 Norte 0 -- -- 85
2020-07-31 22:00:00 22.6 6 Noroeste 18 Noroeste 0 -- -- 83
2020-07-31 21:00:00 25.1 10 Noroeste 28 Norte 0 -- -- 75
2020-07-31 20:00:00 29 15 Norte 31 Norte 0 -- -- 65
2020-07-31 19:00:00 31.4 15 Norte 26 Norte 0 -- -- 57
2020-07-31 18:00:00 33.5 13 Norte 25 Norte 0 -- -- 49
2020-07-31 17:00:00 35.8 10 Nordeste 21 Nordeste 0 -- -- 42
2020-07-31 16:00:00 36.1 7 Oeste 17 Oeste 0 -- -- 30
2020-07-31 15:00:00 36.2 8 Este 18 Este 0 -- -- 30
2020-07-31 14:00:00 35.4 11 Sudeste 27 Sudeste 0 -- -- 32
2020-07-31 13:00:00 33.6 12 Sudeste 27 Sudeste 0 -- -- 34
2020-07-31 12:00:00 32.1 12 Sur 25 Sudeste 0 -- -- 37
2020-07-31 11:00:00 30.4 6 Sudeste 13 Sur 0 -- -- 41
2020-07-31 10:00:00 26.4 4 Nordeste 10 Nordeste 0 -- -- 55
2020-07-31 09:00:00 21.3 4 Norte 8 Norte 0 -- -- 74
2020-07-31 08:00:00 20.7 3 Norte 12 Norte 0 -- -- 72
2020-07-31 07:00:00 19.8 5 Norte 12 Nordeste 0 -- -- 77
2020-07-31 06:00:00 18.3 0 Calma 10 Sudeste 0 -- -- 87
2020-07-31 05:00:00 19.5 5 Norte 12 Norte 0 -- -- 82
2020-07-31 04:00:00 19.7 5 Noroeste 12 Norte 0 -- -- 84
2020-07-31 03:00:00 21.1 5 Norte 13 Norte 0 -- -- 76
2020-07-31 02:00:00 22.1 0 Calma 16 Sudeste 0 -- -- 74
2020-07-31 01:00:00 22.1 4 Norte 13 Norte 0 -- -- 73
2020-07-31 00:00:00 23.1 6 Nordeste 13 Nordeste 0 -- -- 65
2020-07-30 23:00:00 25.6 9 Sudeste 33 Sudeste 0 -- -- 55
2020-07-30 22:00:00 21.8 4 Norte 10 Norte 0 -- -- 76
2020-07-30 21:00:00 21.5 4 Norte 18 Nordeste 0 -- -- 82
2020-07-30 20:00:00 23.8 8 Norte 31 Sudoeste 1.2 -- -- 67
2020-07-30 19:00:00 30.6 19 Sudoeste 46 Sudoeste 0 -- -- 36
2020-07-30 18:00:00 33.6 10 Sudoeste 30 Sudoeste 0 -- -- 37
2020-07-30 17:00:00 37.1 7 Sur 31 Sudeste 0 -- -- 29
2020-07-30 16:00:00 38.6 16 Sur 37 Sudeste 0 -- -- 28
2020-07-30 15:00:00 37.7 13 Sudeste 31 Sur 0 -- -- 29
2020-07-30 14:00:00 35.9 15 Sur 31 Este 0 -- -- 31
2020-07-30 13:00:00 34.1 12 Sudeste 30 Sudeste 0 -- -- 35
2020-07-30 12:00:00 31.6 9 Este 27 Sudeste 0 -- -- 39
2020-07-30 11:00:00 29.4 7 Este 15 Nordeste 0 -- -- 45
2020-07-30 10:00:00 26.7 3 Nordeste 9 Este 0 -- -- 55
2020-07-30 09:00:00 22 4 Este 9 Este 0 -- -- 77
2020-07-30 08:00:00 18.1 0 Calma 9 Norte 0 -- -- 90
2020-07-30 07:00:00 17.7 5 Norte 14 Norte 0 -- -- 90
2020-07-30 06:00:00 18.2 8 Norte 16 Norte 0 -- -- 90
2020-07-30 05:00:00 18.3 7 Norte 17 Norte 0 -- -- 90
2020-07-30 04:00:00 18.1 3 Nordeste 8 Nordeste 0 -- -- 92
2020-07-30 03:00:00 18.5 2 Norte 9 Nordeste 0 -- -- 90
2020-07-30 02:00:00 19.2 3 Norte 7 Norte 0 -- -- 89
2020-07-30 01:00:00 19.7 3 Norte 8 Norte 0 -- -- 87
2020-07-30 00:00:00 20.6 0 Calma 9 Nordeste 0 -- -- 83
2020-07-29 23:00:00 21.7 3 Norte 18 Noroeste 0 -- -- 81
2020-07-29 22:00:00 22.6 7 Norte 19 Norte 0 -- -- 78
2020-07-29 21:00:00 24.8 6 Norte 21 Norte 0 -- -- 71
2020-07-29 20:00:00 26.9 12 Norte 30 Norte 0 -- -- 65
2020-07-29 19:00:00 27.9 13 Norte 30 Noroeste 0 -- -- 63
2020-07-29 18:00:00 28.6 15 Norte 34 Norte 0 -- -- 60
2020-07-29 17:00:00 30.9 12 Norte 28 Norte 0 -- -- 52
2020-07-29 16:00:00 32.5 9 Nordeste 21 Este 0 -- -- 45
2020-07-29 15:00:00 31 8 Este 18 Nordeste 0 -- -- 48
2020-07-29 14:00:00 28.6 6 Este 15 Este 0 -- -- 54
2020-07-29 13:00:00 26.2 5 Norte 15 Norte 0 -- -- 61
2020-07-29 12:00:00 23 6 Norte 19 Norte 0 -- -- 69
2020-07-29 11:00:00 20.6 7 Nordeste 15 Norte 0 -- -- 75
2020-07-29 10:00:00 18.8 4 Noroeste 9 Oeste 0 -- -- 83
2020-07-29 09:00:00 18.2 4 Oeste 20 Norte 0 -- -- 84
2020-07-29 08:00:00 18.1 6 Noroeste 16 Noroeste 0 -- -- 83
2020-07-29 07:00:00 17.9 9 Oeste 17 Oeste 0 -- -- 84
2020-07-29 06:00:00 17.9 8 Oeste 21 Oeste 0 -- -- 85
2020-07-29 05:00:00 18.1 8 Oeste 19 Oeste 0 -- -- 85
2020-07-29 04:00:00 18.2 8 Oeste 25 Noroeste 0 -- -- 86
2020-07-29 03:00:00 18.6 10 Oeste 24 Oeste 0 -- -- 84
2020-07-29 02:00:00 18.7 6 Oeste 19 Noroeste 0 -- -- 83
2020-07-29 01:00:00 18.9 8 Noroeste 17 Oeste 0 -- -- 84
2020-07-29 00:00:00 19.2 10 Oeste 25 Oeste 0 -- -- 84
2020-07-28 23:00:00 19.7 9 Oeste 29 Nordeste 0 -- -- 83
2020-07-28 22:00:00 20.5 12 Norte 28 Norte 0 -- -- 81
2020-07-28 21:00:00 21.1 15 Norte 30 Norte 0 -- -- 79
2020-07-28 20:00:00 22.6 12 Norte 27 Nordeste 0 -- -- 76
2020-07-28 19:00:00 22.7 10 Norte 28 Noroeste 0 -- -- 75
2020-07-28 18:00:00 23.4 12 Norte 26 Noroeste 0 -- -- 72
2020-07-28 17:00:00 24.2 11 Norte 27 Norte 0 -- -- 69
2020-07-28 16:00:00 25.1 10 Norte 27 Norte 0 -- -- 67
2020-07-28 15:00:00 25 10 Norte 23 Norte 0 -- -- 66
2020-07-28 14:00:00 24.3 10 Norte 27 Noroeste 0 -- -- 69
2020-07-28 13:00:00 24.8 9 Noroeste 20 Norte 0 -- -- 69
2020-07-28 12:00:00 22.7 9 Noroeste 25 Noroeste 0 -- -- 75
2020-07-28 11:00:00 21.5 10 Noroeste 24 Noroeste 0 -- -- 80
2020-07-28 10:00:00 20.7 11 Noroeste 20 Oeste 0 -- -- 81
2020-07-28 09:00:00 20.3 9 Oeste 19 Oeste 0 -- -- 83
2020-07-28 08:00:00 19.7 10 Noroeste 24 Oeste 0 -- -- 84
2020-07-28 07:00:00 19.5 9 Noroeste 25 Noroeste 0 -- -- 84
2020-07-28 06:00:00 19.6 12 Oeste 23 Oeste 0 -- -- 83
2020-07-28 05:00:00 19.4 9 Oeste 24 Oeste 0 -- -- 85
2020-07-28 04:00:00 18.8 7 Noroeste 19 Noroeste 0 -- -- 84
2020-07-28 03:00:00 18.9 6 Oeste 14 Oeste 0 -- -- 82
2020-07-28 02:00:00 19.6 6 Noroeste 18 Oeste 0 -- -- 79
2020-07-28 01:00:00 20.2 9 Noroeste 17 Oeste 0 -- -- 76
2020-07-28 00:00:00 20.7 8 Oeste 23 Noroeste 0 -- -- 74
2020-07-27 23:00:00 21.6 13 Oeste 28 Oeste 0 -- -- 74
2020-07-27 22:00:00 22.3 9 Noroeste 31 Norte 0 -- -- 75
2020-07-27 21:00:00 23.5 12 Noroeste 39 Noroeste 0 -- -- 73
2020-07-27 20:00:00 26.2 14 Norte 30 Noroeste 0 -- -- 67
2020-07-27 19:00:00 28.7 13 Noroeste 31 Norte 0 -- -- 63
2020-07-27 18:00:00 32.1 17 Norte 33 Norte 0 -- -- 53
2020-07-27 17:00:00 37.7 6 Noroeste 21 Sudeste 0 -- -- 32
2020-07-27 16:00:00 37.5 6 Sur 20 Sur 0 -- -- 35
2020-07-27 15:00:00 35.9 11 Sudeste 22 Sudeste 0 -- -- 39
2020-07-27 14:00:00 34.2 11 Sudeste 21 Sudeste 0 -- -- 44
2020-07-27 13:00:00 32.3 8 Sudeste 24 Este 0 -- -- 46
2020-07-27 12:00:00 30 9 Este 22 Este 0 -- -- 52
2020-07-27 09:00:00 -- -- -- -- -- -- -- -- --
2020-07-27 08:00:00 18.3 3 Sudeste 10 Sudeste 0 -- -- 91
2020-07-27 07:00:00 16.3 3 Norte 13 Norte 0 -- -- 91
2020-07-27 06:00:00 16.2 6 Norte 11 Nordeste 0 -- -- 92
2020-07-27 05:00:00 16.2 3 Nordeste 8 Norte 0 -- -- 94
2020-07-27 04:00:00 15.8 0 Calma 5 Sur 0 -- -- 94
2020-07-27 03:00:00 16.5 0 Calma 4 Norte 0 -- -- 92
2020-07-27 02:00:00 17.3 0 Calma 3 Norte 0 -- -- 91
2020-07-27 01:00:00 18 0 Calma 4 Nordeste 0 -- -- 89
2020-07-27 00:00:00 19.6 2 Oeste 7 Este 0 -- -- 84
2020-07-26 23:00:00 21.9 3 Este 14 Norte 0 -- -- 77
2020-07-26 22:00:00 22.7 6 Norte 23 Norte 0 -- -- 75
2020-07-26 21:00:00 24 12 Norte 23 Nordeste 0 -- -- 70
2020-07-26 20:00:00 25.8 8 Norte 30 Noroeste 0 -- -- 66
2020-07-26 19:00:00 26.7 16 Norte 28 Noroeste 0 -- -- 62
2020-07-26 18:00:00 28.1 10 Norte 30 Nordeste 0 -- -- 56
2020-07-26 17:00:00 28.9 9 Norte 27 Norte 0 -- -- 53
2020-07-26 16:00:00 29 9 Norte 24 Este 0 -- -- 52
2020-07-26 15:00:00 28.8 7 Nordeste 18 Norte 0 -- -- 49
2020-07-26 14:00:00 27.7 9 Nordeste 21 Nordeste 0 -- -- 52
2020-07-26 13:00:00 26 7 Noroeste 23 Sudoeste 0 -- -- 57
2020-07-26 12:00:00 24.4 9 Oeste 20 Oeste 0 -- -- 60
2020-07-26 11:00:00 22.4 10 Oeste 24 Oeste 0 -- -- 66
2020-07-26 10:00:00 20 8 Oeste 21 Oeste 0 -- -- 77
2020-07-26 09:00:00 16.4 8 Noroeste 13 Oeste 0 -- -- 88
2020-07-26 08:00:00 14.1 3 Norte 8 Noroeste 0 -- -- 93
2020-07-26 07:00:00 14 3 Noroeste 8 Oeste 0 -- -- 92
2020-07-26 06:00:00 15.1 5 Norte 17 Noroeste 0 -- -- 90
2020-07-26 05:00:00 15.3 5 Noroeste 13 Noroeste 0 -- -- 90
2020-07-26 04:00:00 15.9 2 Noroeste 13 Noroeste 0 -- -- 86
2020-07-26 03:00:00 16.7 6 Noroeste 14 Noroeste 0 -- -- 87
2020-07-26 02:00:00 16.8 6 Oeste 13 Noroeste 0 -- -- 86
2020-07-26 01:00:00 17.5 5 Noroeste 13 Noroeste 0 -- -- 82
2020-07-26 00:00:00 18.5 8 Noroeste 25 Oeste 0 -- -- 76
2020-07-25 23:00:00 19.4 8 Oeste 24 Noroeste 0 -- -- 75
2020-07-25 22:00:00 20 6 Noroeste 26 Nordeste 0 -- -- 79
2020-07-25 21:00:00 21.9 13 Noroeste 29 Noroeste 0 -- -- 74
2020-07-25 20:00:00 24.9 17 Noroeste 33 Norte 0 -- -- 66
2020-07-25 19:00:00 28.4 11 Noroeste 25 Este 0 -- -- 58
2020-07-25 18:00:00 30.6 9 Norte 24 Norte 0 -- -- 49
2020-07-25 17:00:00 31.6 8 Norte 18 Noroeste 0 -- -- 40
2020-07-25 16:00:00 31.3 7 Norte 17 Norte 0 -- -- 40
2020-07-25 15:00:00 30.4 3 Oeste 13 Este 0 -- -- 36
2020-07-25 14:00:00 28.6 6 Norte 16 Sudeste 0 -- -- 37
2020-07-25 13:00:00 26.7 8 Este 15 Nordeste 0 -- -- 41
2020-07-25 12:00:00 24.1 4 Sudeste 8 Este 0 -- -- 51
2020-07-25 11:00:00 21.7 3 Sudeste 10 Sur 0 -- -- 63
2020-07-25 10:00:00 18.7 5 Oeste 12 Oeste 0 -- -- 74
2020-07-25 09:00:00 14.7 2 Norte 6 Nordeste 0 -- -- 90
2020-07-25 08:00:00 12.7 3 Norte 5 Norte 0 -- -- 94
2020-07-25 07:00:00 12.9 2 Norte 10 Norte 0 -- -- 94
2020-07-25 06:00:00 12.9 2 Noroeste 7 Oeste 0 -- -- 93
2020-07-25 05:00:00 13.8 0 Calma 8 Oeste 0 -- -- 91
2020-07-25 04:00:00 14.3 3 Noroeste 9 Oeste 0 -- -- 89
2020-07-25 03:00:00 15.2 2 Oeste 8 Sudoeste 0 -- -- 86
2020-07-25 02:00:00 15.9 5 Noroeste 15 Noroeste 0 -- -- 83
2020-07-25 01:00:00 15.7 4 Noroeste 14 Noroeste 0 -- -- 84
2020-07-25 00:00:00 16.6 5 Oeste 15 Noroeste 0 -- -- 80
2020-07-24 23:00:00 17.2 5 Noroeste 19 Noroeste 0 -- -- 78
2020-07-24 22:00:00 18.2 8 Noroeste 18 Oeste 0 -- -- 74
2020-07-24 21:00:00 20.3 5 Noroeste 17 Oeste 0 -- -- 68
2020-07-24 20:00:00 21.9 8 Oeste 29 Oeste 0 -- -- 61
2020-07-24 19:00:00 23 7 Noroeste 28 Noroeste 0 -- -- 58
2020-07-24 18:00:00 23.1 15 Norte 30 Oeste 0 -- -- 58
2020-07-24 17:00:00 24.4 10 Norte 26 Norte 0 -- -- 54
2020-07-24 16:00:00 24.9 7 Norte 21 Noroeste 0 -- -- 53
2020-07-24 15:00:00 24.3 8 Norte 22 Norte 0 -- -- 54
2020-07-24 14:00:00 23.9 9 Norte 23 Noroeste 0 -- -- 57
2020-07-24 13:00:00 23.8 4 Norte 22 Oeste 0 -- -- 57
2020-07-24 12:00:00 22.5 9 Oeste 29 Oeste 0 -- -- 60
2020-07-24 11:00:00 21 9 Oeste 26 Oeste 0 -- -- 66
2020-07-24 10:00:00 19.5 10 Oeste 24 Oeste 0 -- -- 71
2020-07-24 09:00:00 17.5 8 Oeste 20 Noroeste 0 -- -- 80
2020-07-24 08:00:00 13.8 3 Oeste 10 Oeste 0 -- -- 91
2020-07-24 07:00:00 14.2 4 Oeste 15 Oeste 0 -- -- 90
2020-07-24 06:00:00 14.3 6 Oeste 13 Sur 0 -- -- 89
2020-07-24 05:00:00 14.7 5 Noroeste 15 Oeste 0 -- -- 86
2020-07-24 04:00:00 15.1 5 Oeste 13 Sudoeste 0 -- -- 85
2020-07-24 03:00:00 15.9 5 Sur 10 Sudoeste 0 -- -- 79
2020-07-24 02:00:00 17 5 Oeste 27 Sudoeste 0 -- -- 77
2020-07-24 01:00:00 17.6 9 Oeste 18 Oeste 0 -- -- 78
2020-07-24 00:00:00 18.1 10 Oeste 21 Oeste 0 -- -- 75
2020-07-23 23:00:00 18.6 11 Oeste 27 Oeste 0 -- -- 69
2020-07-23 22:00:00 19.6 13 Oeste 26 Oeste 0 -- -- 66
2020-07-23 21:00:00 21.5 7 Oeste 24 Noroeste 0 -- -- 61
2020-07-23 20:00:00 23.9 10 Noroeste 26 Norte 0 -- -- 62
2020-07-23 19:00:00 25.4 12 Norte 27 Norte 0 -- -- 60
2020-07-23 18:00:00 26.1 10 Norte 26 Noroeste 0 -- -- 59
2020-07-23 17:00:00 26.3 10 Norte 30 Norte 0 -- -- 61
2020-07-23 16:00:00 24.9 10 Noroeste 20 Noroeste 0 -- -- 67
2020-07-23 15:00:00 23.5 8 Noroeste 26 Oeste 0 -- -- 74
2020-07-23 14:00:00 23.7 9 Oeste 22 Oeste 0 -- -- 73
2020-07-23 13:00:00 22.2 9 Oeste 17 Oeste 0 -- -- 79
2020-07-23 12:00:00 21.1 8 Oeste 20 Oeste 0 -- -- 82
2020-07-23 11:00:00 20.7 6 Oeste 18 Oeste 0 -- -- 83
2020-07-23 10:00:00 20.4 6 Oeste 18 Oeste 0 -- -- 84
2020-07-23 09:00:00 19.7 6 Oeste 15 Oeste 0 -- -- 88
2020-07-23 08:00:00 19.3 4 Oeste 12 Oeste 0 -- -- 89
2020-07-23 07:00:00 18.9 3 Noroeste 8 Noroeste 0 -- -- 90
2020-07-23 06:00:00 17.9 2 Oeste 6 Norte 0 -- -- 93
2020-07-23 05:00:00 17.8 0 Calma 4 Noroeste 0 -- -- 93
2020-07-23 04:00:00 18.1 0 Calma 5 Oeste 0 -- -- 91
2020-07-23 03:00:00 19.3 0 Calma 9 Oeste 0 -- -- 88
2020-07-23 02:00:00 20.3 0 Calma 10 Noroeste 0 -- -- 85
2020-07-23 01:00:00 20.4 4 Sudoeste 21 Norte 0 -- -- 84
2020-07-23 00:00:00 21 9 Noroeste 19 Norte 0 -- -- 83
2020-07-22 23:00:00 21.2 0 Calma 26 Norte 0 -- -- 84
2020-07-22 22:00:00 21.4 8 Noroeste 23 Noroeste 0 -- -- 84
2020-07-22 21:00:00 23.1 6 Oeste 26 Noroeste 0 -- -- 79
2020-07-22 20:00:00 25.2 11 Noroeste 28 Noroeste 0 -- -- 73
2020-07-22 19:00:00 27.9 10 Noroeste 34 Noroeste 0 -- -- 66
2020-07-22 18:00:00 30 10 Norte 26 Noroeste 0 -- -- 60
2020-07-22 17:00:00 31.5 13 Norte 31 Nordeste 0 -- -- 54
2020-07-22 16:00:00 33.9 6 Oeste 16 Sur 0 -- -- 32
2020-07-22 15:00:00 33.3 6 Sur 15 Sudeste 0 -- -- 36
2020-07-22 14:00:00 30.5 4 Sudoeste 19 Sudeste 0 -- -- 47
2020-07-22 13:00:00 30.5 11 Sudeste 21 Sudeste 0 -- -- 44
2020-07-22 12:00:00 26.9 6 Este 15 Este 0 -- -- 60
2020-07-22 11:00:00 23.5 4 Norte 8 Sur 0 -- -- 74
2020-07-22 10:00:00 21.8 0 Calma 12 Oeste 0 -- -- 81
2020-07-22 09:00:00 18.9 6 Oeste 12 Oeste 0 -- -- 94
2020-07-22 08:00:00 17.9 0 Calma 0 Calma 0 -- -- 96
2020-07-22 07:00:00 17.6 0 Calma 4 Norte 0 -- -- 95
2020-07-22 06:00:00 18 0 Calma 5 Noroeste 0 -- -- 94
2020-07-22 05:00:00 18.7 4 Oeste 14 Oeste 0 -- -- 91
2020-07-22 04:00:00 18.8 4 Nordeste 12 Este 0 -- -- 92
2020-07-22 03:00:00 19.1 0 Calma 13 Nordeste 0 -- -- 91
2020-07-22 02:00:00 19 3 Norte 8 Noroeste 0 -- -- 94
2020-07-22 01:00:00 19.3 4 Nordeste 9 Oeste 0 -- -- 94
2020-07-22 00:00:00 19.3 3 Este 7 Este 0 -- -- 95
2020-07-21 23:00:00 19.8 0 Calma 8 Norte 0.2 -- -- 93
2020-07-21 22:00:00 20.1 2 Noroeste 14 Sur 0 -- -- 91
2020-07-21 21:00:00 20.5 5 Sudoeste 15 Sur 1.2 -- -- 90
2020-07-21 20:00:00 21.4 7 Noroeste 27 Norte 0 -- -- 81
2020-07-21 19:00:00 23.2 10 Noroeste 19 Noroeste 0 -- -- 74
2020-07-21 18:00:00 26 9 Norte 26 Norte 0 -- -- 67
2020-07-21 17:00:00 28.5 13 Norte 31 Norte 0 -- -- 60
2020-07-21 16:00:00 30.9 15 Norte 27 Norte 0 -- -- 49
2020-07-21 15:00:00 33.8 7 Sudeste 17 Este 0 -- -- 36
2020-07-21 14:00:00 31.9 8 Sudeste 21 Sudeste 0 -- -- 41
2020-07-21 13:00:00 29.6 9 Este 21 Este 0 -- -- 45
2020-07-21 12:00:00 27.3 9 Nordeste 20 Nordeste 0 -- -- 49
2020-07-21 11:00:00 25 9 Nordeste 17 Este 0 -- -- 53
2020-07-21 10:00:00 20.4 4 Norte 9 Norte 0 -- -- 68
2020-07-21 09:00:00 17.5 4 Nordeste 8 Nordeste 0 -- -- 77
2020-07-21 08:00:00 13.8 0 Calma 2 Sur 0 -- -- 91
2020-07-21 07:00:00 13.5 0 Calma 3 Nordeste 0 -- -- 90
2020-07-21 06:00:00 14.1 3 Norte 6 Nordeste 0 -- -- 87
2020-07-21 05:00:00 14.4 0 Calma 6 Norte 0 -- -- 86
2020-07-21 04:00:00 15.3 2 Noroeste 8 Oeste 0 -- -- 82
2020-07-21 03:00:00 16.5 3 Noroeste 9 Oeste 0 -- -- 76
2020-07-21 02:00:00 17.3 5 Oeste 9 Oeste 0 -- -- 72
2020-07-21 01:00:00 17.7 0 Calma 8 Oeste 0 -- -- 68
2020-07-21 00:00:00 19 2 Noroeste 9 Noroeste 0 -- -- 60
2020-07-20 23:00:00 19.9 4 Oeste 15 Oeste 0 -- -- 57
2020-07-20 22:00:00 20.7 12 Noroeste 32 Noroeste 0 -- -- 59
2020-07-20 21:00:00 21.1 21 Noroeste 39 Noroeste 0 -- -- 67
2020-07-20 20:00:00 21.8 22 Noroeste 41 Norte 0 -- -- 74
2020-07-20 19:00:00 23.9 20 Noroeste 36 Noroeste 0 -- -- 71
2020-07-20 18:00:00 25.8 20 Noroeste 33 Norte 0 -- -- 68
2020-07-20 17:00:00 28.8 11 Noroeste 26 Noroeste 0 -- -- 60
2020-07-20 16:00:00 29.8 8 Norte 21 Norte 0 -- -- 55
2020-07-20 15:00:00 29.5 12 Norte 21 Norte 0 -- -- 54
2020-07-20 14:00:00 29.3 7 Norte 15 Nordeste 0 -- -- 53
2020-07-20 13:00:00 27.8 5 Norte 13 Norte 0 -- -- 55
2020-07-20 12:00:00 26.2 5 Norte -- -- -- -- -- 56
2020-07-20 11:00:00 24.2 3 Sur 9 Sudoeste 0 -- -- 65
2020-07-20 10:00:00 21.1 3 Norte 10 Noroeste 0 -- -- 73
2020-07-20 09:00:00 18.1 3 Norte 8 Oeste 0 -- -- 83
2020-07-20 08:00:00 16.6 2 Norte 10 Noroeste 0 -- -- 87
2020-07-20 07:00:00 16.6 6 Noroeste 11 Noroeste 0 -- -- 87
2020-07-20 06:00:00 17.3 4 Noroeste 9 Noroeste 0 -- -- 83
2020-07-20 05:00:00 17.5 5 Oeste 11 Oeste 0 -- -- 82
2020-07-20 04:00:00 18.6 3 Oeste 15 Oeste 0 -- -- 77
2020-07-20 03:00:00 19.6 4 Oeste 11 Noroeste 0 -- -- 72
2020-07-20 02:00:00 20.6 5 Noroeste 16 Noroeste 0 -- -- 67
2020-07-20 01:00:00 21.9 9 Oeste 21 Oeste 0 -- -- 62
2020-07-20 00:00:00 22.4 8 Oeste 21 Oeste 0 -- -- 62
2020-07-19 23:00:00 23.1 4 Noroeste 26 Oeste 0 -- -- 69
2020-07-19 22:00:00 24.7 7 Oeste 25 Noroeste 0 -- -- 69
2020-07-19 21:00:00 27.1 13 Norte 28 Norte 0 -- -- 60
2020-07-19 20:00:00 29.5 9 Norte 32 Norte 0 -- -- 58
2020-07-19 19:00:00 31.4 12 Norte 26 Norte 0 -- -- 53
2020-07-19 18:00:00 34.5 5 Norte 14 Norte 0 -- -- 35
2020-07-19 17:00:00 33.9 6 Norte 13 Nordeste 0 -- -- 35
2020-07-19 16:00:00 33.9 6 Norte 12 Noroeste 0 -- -- 34
2020-07-19 15:00:00 33.2 6 Sudeste 17 Nordeste 0 -- -- 38
2020-07-19 14:00:00 31.6 5 Sur 19 Sudeste 0 -- -- 44
2020-07-19 13:00:00 29.4 8 Nordeste 20 Este 0 -- -- 51
2020-07-19 12:00:00 28 8 Este 19 Este 0 -- -- 55
2020-07-19 11:00:00 25.2 8 Este 20 Sudeste 0 -- -- 62
2020-07-19 10:00:00 20.8 5 Este 13 Sudeste 0 -- -- 75
2020-07-19 09:00:00 15 4 Norte 10 Nordeste 0 -- -- 94
2020-07-19 08:00:00 11.8 0 Calma 3 Sudeste 0 -- -- 96
2020-07-19 07:00:00 11.6 0 Calma 3 Oeste 0 -- -- 96
2020-07-19 06:00:00 12 0 Calma 4 Nordeste 0 -- -- 95
2020-07-19 05:00:00 12.5 0 Calma 3 Norte 0 -- -- 94
2020-07-19 04:00:00 13.3 0 Calma 6 Nordeste 0 -- -- 93
2020-07-19 03:00:00 14.1 0 Calma 4 Oeste 0 -- -- 92
2020-07-19 02:00:00 15.3 2 Noroeste 13 Oeste 0 -- -- 88
2020-07-19 01:00:00 17.2 3 Noroeste 14 Oeste 0 -- -- 85
2020-07-19 00:00:00 18.1 4 Oeste 12 Noroeste 0 -- -- 80
2020-07-18 23:00:00 19.5 2 Oeste 16 Oeste 0 -- -- 76
2020-07-18 22:00:00 21.7 6 Oeste 28 Noroeste 0 -- -- 70
2020-07-18 21:00:00 24.5 9 Noroeste 29 Norte 0 -- -- 57
2020-07-18 20:00:00 26.3 6 Noroeste 30 Oeste 0 -- -- 54
2020-07-18 19:00:00 27.5 8 Norte 22 Oeste 0 -- -- 50
2020-07-18 18:00:00 28.3 6 Norte 24 Norte 0 -- -- 49
2020-07-18 17:00:00 28.7 7 Nordeste 30 Nordeste 0 -- -- 45
2020-07-18 16:00:00 28.5 8 Norte 30 Norte 0 -- -- 46
2020-07-18 15:00:00 28 8 Norte 21 Nordeste 0 -- -- 43
2020-07-18 14:00:00 27 7 Nordeste 20 Nordeste 0 -- -- 47
2020-07-18 13:00:00 26.1 8 Nordeste 23 Nordeste 0 -- -- 51
2020-07-18 12:00:00 24.1 7 Noroeste 24 Noroeste 0 -- -- 57
2020-07-18 11:00:00 22.7 10 Noroeste 30 Noroeste 0 -- -- 61
2020-07-18 10:00:00 21.1 8 Oeste 22 Noroeste 0 -- -- 68
2020-07-18 09:00:00 17.2 3 Nordeste 10 Sudoeste 0 -- -- 83
2020-07-18 08:00:00 14.3 2 Noroeste 12 Sudoeste 0 -- -- 90
2020-07-18 07:00:00 15.2 4 Oeste 21 Oeste 0 -- -- 85
2020-07-18 06:00:00 16.7 6 Noroeste 18 Sudoeste 0 -- -- 80
2020-07-18 05:00:00 16.4 4 Oeste 19 Sudoeste 0 -- -- 81
2020-07-18 04:00:00 16.7 4 Noroeste 14 Oeste 0 -- -- 80
2020-07-18 03:00:00 17.3 4 Noroeste 21 Norte 0 -- -- 79
2020-07-18 02:00:00 17.5 13 Oeste 33 Sudoeste 0 -- -- 80
2020-07-18 01:00:00 17.3 13 Oeste 28 Oeste 0 -- -- 80
2020-07-18 00:00:00 17.6 5 Sudoeste 31 Noroeste 0 -- -- 77
2020-07-17 23:00:00 18.1 11 Noroeste 29 Sudoeste 0 -- -- 75
2020-07-17 22:00:00 18.2 9 Oeste 28 Nordeste 0 -- -- 74
2020-07-17 21:00:00 19 6 Noroeste 22 Norte 0 -- -- 73
2020-07-17 20:00:00 19.5 7 Noroeste 21 Norte 0 -- -- 70
2020-07-17 19:00:00 20.6 10 Noroeste 27 Noroeste 0 -- -- 65
2020-07-17 18:00:00 20.5 5 Norte 21 Oeste 0 -- -- 66
2020-07-17 17:00:00 20.1 10 Noroeste 31 Noroeste 0 -- -- 66
2020-07-17 16:00:00 20.2 6 Noroeste 22 Noroeste 0 -- -- 68
2020-07-17 15:00:00 19.6 9 Noroeste 26 Norte 0 -- -- 67
2020-07-17 14:00:00 19.2 6 Norte 22 Oeste 0 -- -- 69
2020-07-17 13:00:00 19.4 8 Noroeste 22 Oeste 0 -- -- 69
2020-07-17 12:00:00 18.1 9 Noroeste 29 Oeste 0 -- -- 71
2020-07-17 11:00:00 17.6 11 Oeste 27 Oeste 0 -- -- 74
2020-07-17 10:00:00 16.8 11 Oeste 24 Oeste 0 -- -- 76
2020-07-17 09:00:00 16.1 8 Oeste 21 Oeste 0 -- -- 81
2020-07-17 08:00:00 15.7 9 Noroeste 22 Oeste 0 -- -- 83
2020-07-17 07:00:00 15.7 8 Oeste 26 Oeste 0 -- -- 80
2020-07-17 06:00:00 15.7 9 Noroeste 27 Oeste 0 -- -- 80
2020-07-17 05:00:00 15.7 8 Oeste 26 Oeste 0 -- -- 82
2020-07-17 04:00:00 15.5 6 Noroeste 19 Oeste 0 -- -- 85
2020-07-17 03:00:00 15.2 8 Noroeste 17 Oeste 0 -- -- 89
2020-07-17 02:00:00 15.5 7 Oeste 15 Noroeste 0 -- -- 87
2020-07-17 01:00:00 15.7 6 Oeste 20 Oeste 0 -- -- 84
2020-07-17 00:00:00 15.9 8 Oeste 25 Oeste 0 -- -- 83
2020-07-16 23:00:00 16.2 5 Noroeste 26 Oeste 0 -- -- 81
2020-07-16 22:00:00 16.4 5 Noroeste 17 Noroeste 0 -- -- 80
2020-07-16 21:00:00 16.9 8 Oeste 31 Norte 0 -- -- 77
2020-07-16 20:00:00 17.5 12 Noroeste 32 Norte 0 -- -- 75
2020-07-16 19:00:00 18.4 9 Noroeste 32 Norte 0 -- -- 73
2020-07-16 18:00:00 19.2 12 Noroeste 28 Noroeste 0 -- -- 71
2020-07-16 17:00:00 19.9 8 Noroeste 26 Noroeste 0 -- -- 69
2020-07-16 16:00:00 19.3 12 Oeste 24 Sur 0 -- -- 70
2020-07-16 15:00:00 19.1 8 Noroeste 27 Oeste 0 -- -- 72
2020-07-16 14:00:00 18 8 Noroeste 23 Noroeste 0 -- -- 75
2020-07-16 13:00:00 17.2 4 Norte 24 Oeste 0 -- -- 78
2020-07-16 12:00:00 17.1 6 Norte 18 Noroeste 0 -- -- 77
2020-07-16 11:00:00 17.3 6 Noroeste 17 Noroeste 0 -- -- 74
2020-07-16 10:00:00 16.5 5 Noroeste 19 Norte 0 -- -- 77
2020-07-16 09:00:00 16.3 5 Noroeste 19 Oeste 0 -- -- 75
2020-07-16 08:00:00 15.9 6 Oeste 17 Oeste 0 -- -- 79
2020-07-16 07:00:00 15.5 6 Noroeste 15 Oeste 0 -- -- 81
2020-07-16 06:00:00 15.6 8 Oeste 20 Oeste 0 -- -- 80
2020-07-16 05:00:00 15.7 6 Noroeste 20 Noroeste 0 -- -- 81
2020-07-16 04:00:00 15.7 8 Oeste 18 Oeste 0 -- -- 80
2020-07-16 03:00:00 15.5 5 Noroeste 19 Oeste 0 -- -- 80
2020-07-16 02:00:00 15.6 4 Noroeste 23 Noroeste 0 -- -- 80
2020-07-16 01:00:00 15.6 5 Noroeste 18 Oeste 0 -- -- 79
2020-07-16 00:00:00 15.8 6 Noroeste 18 Noroeste 0 -- -- 80
2020-07-15 23:00:00 15.2 5 Noroeste 12 Oeste 0 -- -- 81
2020-07-15 22:00:00 16.1 4 Noroeste 18 Oeste 0 -- -- 75
2020-07-15 21:00:00 17.3 6 Oeste 20 Norte 0 -- -- 67
2020-07-15 20:00:00 18.8 9 Noroeste 27 Noroeste 0 -- -- 64
2020-07-15 19:00:00 19.9 8 Oeste 26 Noroeste 0 -- -- 60
2020-07-15 18:00:00 20.3 8 Norte 30 Oeste 0 -- -- 62
2020-07-15 17:00:00 20.3 11 Oeste 24 Oeste 0 -- -- 63
2020-07-15 16:00:00 19.2 9 Noroeste 33 Oeste 0 -- -- 65
2020-07-15 15:00:00 19.3 10 Norte 33 Oeste 0 -- -- 63
2020-07-15 14:00:00 18.8 9 Noroeste 28 Oeste 0 -- -- 70
2020-07-15 13:00:00 18.7 10 Oeste 28 Oeste 0 -- -- 70
2020-07-15 12:00:00 18.1 11 Oeste 23 Oeste 0 -- -- 77
2020-07-15 11:00:00 17.1 9 Oeste 24 Oeste 0 -- -- 83
2020-07-15 10:00:00 17 11 Noroeste 25 Oeste 0 -- -- 81
2020-07-15 09:00:00 15.5 8 Noroeste 24 Oeste 0 -- -- 85
2020-07-15 08:00:00 15 8 Noroeste 19 Noroeste 0 -- -- 84
2020-07-15 07:00:00 14.6 6 Noroeste 20 Noroeste 0 -- -- 85
2020-07-15 06:00:00 14.9 7 Noroeste 15 Noroeste 0 -- -- 81
2020-07-15 05:00:00 15 7 Oeste 19 Noroeste 0 -- -- 80
2020-07-15 04:00:00 15 9 Oeste 20 Oeste 0 -- -- 81
2020-07-15 03:00:00 14.8 5 Oeste 14 Oeste 0 -- -- 80
2020-07-15 02:00:00 14.6 5 Noroeste 21 Oeste 0 -- -- 79
2020-07-15 01:00:00 15.4 7 Oeste 19 Sudoeste 0 -- -- 78
2020-07-15 00:00:00 15.1 6 Oeste 23 Oeste 0 -- -- 79
2020-07-14 23:00:00 15.1 10 Oeste 20 Oeste 0 -- -- 79
2020-07-14 22:00:00 15.5 5 Noroeste 18 Norte 0 -- -- 72
2020-07-14 21:00:00 17.5 12 Norte 24 Noroeste 0 -- -- 62
2020-07-14 20:00:00 19.6 9 Noroeste 29 Oeste 0 -- -- 49
2020-07-14 19:00:00 20.6 8 Noroeste 31 Noroeste 0 -- -- 44
2020-07-14 18:00:00 21.6 15 Noroeste 35 Oeste 0 -- -- 48
2020-07-14 17:00:00 22.3 14 Noroeste 36 Oeste 0 -- -- 51
2020-07-14 16:00:00 22.5 12 Oeste 26 Oeste 0 -- -- 53
2020-07-14 15:00:00 21.6 6 Norte 24 Oeste 0 -- -- 50
2020-07-14 14:00:00 20.3 10 Noroeste 35 Oeste 0 -- -- 57
2020-07-14 13:00:00 20.3 7 Noroeste 28 Oeste 0 -- -- 57
2020-07-14 12:00:00 19.8 10 Oeste 28 Noroeste 0 -- -- 60
2020-07-14 11:00:00 18.8 14 Oeste 35 Oeste 0 -- -- 63
2020-07-14 10:00:00 17.5 11 Oeste 26 Oeste 0 -- -- 70
2020-07-14 09:00:00 15.1 4 Oeste 10 Oeste 0 -- -- 83
2020-07-14 08:00:00 13.4 3 Oeste 9 Oeste 0 -- -- 89
2020-07-14 07:00:00 12.9 3 Noroeste 8 Sudoeste 0 -- -- 90
2020-07-14 06:00:00 12.8 5 Sudoeste 13 Oeste 0 -- -- 90
2020-07-14 05:00:00 13.3 5 Oeste 13 Oeste 0 -- -- 89
2020-07-14 04:00:00 13.7 4 Oeste 13 Sudoeste 0 -- -- 87
2020-07-14 03:00:00 14.8 5 Noroeste 14 Oeste 0 -- -- 82
2020-07-14 02:00:00 15.7 5 Noroeste 17 Noroeste 0 -- -- 80
2020-07-14 01:00:00 15.8 5 Noroeste 20 Oeste 0 -- -- 83
2020-07-14 00:00:00 16.6 12 Noroeste 25 Oeste 0 -- -- 81
2020-07-13 23:00:00 17 10 Noroeste 23 Noroeste 0 -- -- 78
2020-07-13 22:00:00 17.8 7 Noroeste 22 Oeste 0 -- -- 73
2020-07-13 21:00:00 20.5 7 Noroeste 29 Norte 0 -- -- 60
2020-07-13 20:00:00 22.1 10 Noroeste 28 Norte 0 -- -- 54
2020-07-13 19:00:00 22.7 14 Noroeste 30 Noroeste 0 -- -- 49
2020-07-13 18:00:00 23.6 16 Noroeste 30 Norte 0 -- -- 49
2020-07-13 17:00:00 24.1 8 Noroeste 32 Norte 0 -- -- 50
2020-07-13 16:00:00 24.5 10 Nordeste 32 Noroeste 0 -- -- 46
2020-07-13 15:00:00 24.1 15 Norte 31 Norte 0 -- -- 46
2020-07-13 14:00:00 24.4 8 Norte 29 Noroeste 0 -- -- 52
2020-07-13 13:00:00 23.3 11 Noroeste 29 Norte 0 -- -- 61
2020-07-13 12:00:00 22.2 12 Oeste 28 Oeste 0 -- -- 63
2020-07-13 11:00:00 20.5 15 Oeste 34 Oeste 0 -- -- 70
2020-07-13 10:00:00 19 16 Oeste 31 Oeste 0 -- -- 75
2020-07-13 09:00:00 17.6 11 Oeste 27 Sudoeste 0 -- -- 81
2020-07-13 08:00:00 15.4 5 Oeste 16 Noroeste 0 -- -- 89
2020-07-13 07:00:00 14 0 Calma 6 Norte 0 -- -- 92
2020-07-13 06:00:00 14.6 3 Noroeste 15 Oeste 0 -- -- 88
2020-07-13 05:00:00 14.5 0 Calma 5 Norte 0 -- -- 88
2020-07-13 04:00:00 16 0 Calma 17 Noroeste 0 -- -- 82
2020-07-13 03:00:00 17.6 8 Oeste 29 Oeste 0 -- -- 76
2020-07-13 02:00:00 18.3 11 Oeste 25 Oeste 0 -- -- 72
2020-07-13 01:00:00 18.7 9 Oeste 26 Oeste 0 -- -- 82
2020-07-13 00:00:00 19.2 12 Oeste 29 Oeste 0 -- -- 83